Time;durP1;ratioP1;P1;durP2;ratioP2;P2;SDS_P1;SDS_P2;PMS_P1;PMS_P2;Temp;Humidity;BMP_temperature;BMP_pressure;BME280_temperature;BME280_humidity;BME280_pressure;Samples;Min_cycle;Max_cycle;Signal;HPM_P1;HPM_P2
2021/07/07 00:01:29;;;;;;;;;3.25;3.25;;;;;22.12;43.68;100097.28;5037563;28;45836;-73
2021/07/07 00:03:54;;;;;;;;;3.00;3.00;;;;;22.11;43.83;100095.59;5017864;28;45572;-75
2021/07/07 00:06:20;;;;;;;;;3.00;3.00;;;;;22.10;43.39;100100.06;5035172;28;45477;-77
2021/07/07 00:08:45;;;;;;;;;3.50;3.50;;;;;22.07;43.84;100094.16;5017937;28;45519;-77
2021/07/07 00:11:11;;;;;;;;;5.25;2.25;;;;;22.06;43.53;100093.31;5036080;28;45401;-74
2021/07/07 00:13:36;;;;;;;;;4.00;2.25;;;;;22.03;43.90;100101.50;5000384;28;45494;-76
2021/07/07 00:16:02;;;;;;;;;2.00;2.00;;;;;22.02;43.85;100091.84;5034862;28;45491;-76
2021/07/07 00:18:27;;;;;;;;;2.00;2.00;;;;;22.00;43.87;100101.75;5036105;28;45416;-76
2021/07/07 00:20:55;;;;;;;;;3.25;2.50;;;;;21.99;43.28;100105.38;5034944;28;48033;-76
2021/07/07 00:23:24;;;;;;;;;3.50;2.00;;;;;21.98;43.85;100101.03;5034556;28;45489;-75
2021/07/07 00:25:50;;;;;;;;;3.00;2.75;;;;;21.96;43.88;100105.63;5036060;28;45449;-74
2021/07/07 00:28:15;;;;;;;;;4.00;3.00;;;;;21.95;43.64;100106.59;5040219;28;45576;-74
2021/07/07 00:30:41;;;;;;;;;2.00;2.00;;;;;21.94;44.11;100108.41;5051706;28;46644;-75
2021/07/07 00:33:06;;;;;;;;;3.50;2.25;;;;;21.93;44.10;100109.38;5028895;28;45432;-78
2021/07/07 00:35:32;;;;;;;;;3.00;2.00;;;;;21.91;43.79;100111.31;5039102;28;45462;-77
2021/07/07 00:37:57;;;;;;;;;4.50;2.25;;;;;21.90;43.63;100106.09;5035204;28;45433;-77
2021/07/07 00:40:23;;;;;;;;;2.00;2.00;;;;;21.90;43.87;100111.41;5035182;28;63479;-76
2021/07/07 00:42:48;;;;;;;;;2.25;2.25;;;;;21.89;43.81;100115.88;5034313;28;45730;-77
2021/07/07 00:45:14;;;;;;;;;3.75;2.00;;;;;21.89;44.04;100109.72;5017982;28;45441;-74
2021/07/07 00:47:39;;;;;;;;;2.00;2.00;;;;;21.88;43.74;100108.03;5019268;28;45340;-77
2021/07/07 00:50:07;;;;;;;;;3.25;3.00;;;;;21.86;44.25;100110.81;5032879;28;46325;-76
2021/07/07 00:52:33;;;;;;;;;2.00;1.00;;;;;21.85;44.03;100114.44;5036367;28;45395;-76
2021/07/07 00:54:59;;;;;;;;;4.75;4.00;;;;;21.84;44.11;100115.41;5035942;28;45514;-76
2021/07/07 00:57:27;;;;;;;;;3.00;2.00;;;;;21.82;44.15;100108.53;5020920;28;45690;-76
2021/07/07 00:59:53;;;;;;;;;2.00;2.00;;;;;21.80;44.34;100106.00;5017494;28;45551;-74
2021/07/07 01:02:18;;;;;;;;;3.75;2.00;;;;;21.80;44.08;100108.66;5036068;28;45374;-73
2021/07/07 01:04:44;;;;;;;;;3.00;3.00;;;;;21.79;44.17;100106.97;5035164;28;45395;-74
2021/07/07 01:07:09;;;;;;;;;5.00;3.00;;;;;21.79;44.25;100100.78;5032605;28;53963;-77
2021/07/07 01:09:36;;;;;;;;;3.00;2.00;;;;;21.77;44.29;100108.06;5033307;28;48739;-75
2021/07/07 01:12:01;;;;;;;;;6.25;3.25;;;;;21.75;44.39;100108.16;5033271;28;45672;-73
2021/07/07 01:14:27;;;;;;;;;2.50;2.50;;;;;21.74;44.66;100100.31;5016323;28;45446;-75
2021/07/07 01:16:52;;;;;;;;;3.00;2.75;;;;;21.74;44.24;100103.81;5033725;28;50567;-76
2021/07/07 01:19:17;;;;;;;;;3.25;3.25;;;;;21.73;44.25;100101.28;5034177;28;45418;-79
2021/07/07 01:21:45;;;;;;;;;4.00;3.00;;;;;21.71;44.52;100100.56;5035648;28;45302;-73
2021/07/07 01:24:11;;;;;;;;;2.50;2.50;;;;;21.71;44.39;100104.06;5015858;28;45513;-72
2021/07/07 01:26:36;;;;;;;;;3.50;2.50;;;;;21.69;44.15;100103.34;5032937;28;45705;-74
2021/07/07 01:29:01;;;;;;;;;3.50;3.00;;;;;21.69;44.62;100099.81;5031628;28;45547;-77
2021/07/07 01:31:27;;;;;;;;;4.25;2.00;;;;;21.67;44.54;100106.09;5017884;28;45427;-74
2021/07/07 01:33:52;;;;;;;;;4.25;3.00;;;;;21.66;44.44;100100.91;5034745;28;45479;-78
2021/07/07 01:36:18;;;;;;;;;3.25;2.00;;;;;21.65;44.79;100102.72;5036576;28;45410;-78
2021/07/07 01:38:43;;;;;;;;;4.00;3.00;;;;;21.64;44.79;100102.84;5032621;28;60243;-77
2021/07/07 01:41:09;;;;;;;;;5.00;2.00;;;;;21.62;44.92;100105.63;5035525;28;45408;-77
2021/07/07 01:43:34;;;;;;;;;2.00;2.00;;;;;21.61;44.54;100106.59;5017606;28;45354;-77
2021/07/07 01:45:59;;;;;;;;;2.00;2.00;;;;;21.60;44.92;100106.72;5034329;28;46872;-76
2021/07/07 01:48:25;;;;;;;;;4.00;2.75;;;;;21.58;44.73;100103.31;5049813;28;62229;-79
2021/07/07 01:50:50;;;;;;;;;3.00;2.25;;;;;21.55;44.88;100093.78;5032568;28;45900;-75
2021/07/07 01:53:16;;;;;;;;;3.00;2.50;;;;;21.55;45.03;100109.72;5034873;28;45310;-74
2021/07/07 01:55:41;;;;;;;;;4.00;2.00;;;;;21.55;44.91;100108.88;5032368;28;45706;-76
2021/07/07 01:58:06;;;;;;;;;2.50;2.50;;;;;21.53;44.68;100111.66;5035113;28;46549;-78
2021/07/07 02:00:33;;;;;;;;;3.00;2.75;;;;;21.52;45.23;100106.47;5017128;28;45414;-78
2021/07/07 02:02:58;;;;;;;;;3.25;3.25;;;;;21.50;45.15;100100.44;5045137;28;45375;-78
2021/07/07 02:05:26;;;;;;;;;3.75;2.00;;;;;21.49;45.14;100110.22;5035484;28;45367;-77
2021/07/07 02:07:51;;;;;;;;;3.50;2.00;;;;;21.48;45.03;100105.03;5034948;28;45447;-75
2021/07/07 02:10:17;;;;;;;;;5.75;3.00;;;;;21.48;45.03;100105.88;5033683;28;45365;-76
2021/07/07 02:12:43;;;;;;;;;3.50;3.50;;;;;21.46;45.03;100104.25;5034966;28;45537;-77
2021/07/07 02:15:12;;;;;;;;;2.00;2.00;;;;;21.44;45.26;100099.06;5016662;28;45623;-77
2021/07/07 02:17:38;;;;;;;;;2.75;2.75;;;;;21.45;45.35;100103.41;5035848;28;45704;-75
2021/07/07 02:20:08;;;;;;;;;4.25;2.25;;;;;21.43;45.08;100102.69;5035685;28;45363;-73
2021/07/07 02:22:33;;;;;;;;;3.00;2.75;;;;;21.41;45.21;100098.47;5033530;28;45782;-76
2021/07/07 02:24:58;;;;;;;;;3.25;2.75;;;;;21.40;45.22;100104.75;5033654;28;45438;-75
2021/07/07 02:27:24;;;;;;;;;3.75;2.50;;;;;21.38;45.54;100102.22;5033859;28;64128;-74
2021/07/07 02:29:49;;;;;;;;;2.00;2.00;;;;;21.37;45.52;100097.03;5035359;28;54462;-73
2021/07/07 02:32:15;;;;;;;;;3.00;3.00;;;;;21.37;45.38;100100.53;5036537;28;45444;-74
2021/07/07 02:34:40;;;;;;;;;4.25;3.25;;;;;21.35;45.67;100105.97;5034358;28;50031;-76
2021/07/07 02:37:05;;;;;;;;;5.50;4.00;;;;;21.34;45.28;100108.72;5034316;28;46165;-73
2021/07/07 02:39:31;;;;;;;;;3.00;3.00;;;;;21.31;45.72;100108.97;5033465;28;54136;-73
2021/07/07 02:41:56;;;;;;;;;2.00;2.00;;;;;21.31;45.63;100109.81;5036385;28;45984;-72
2021/07/07 02:44:22;;;;;;;;;3.75;3.75;;;;;21.30;45.59;100113.44;5037026;28;45405;-75
2021/07/07 02:46:47;;;;;;;;;4.50;3.25;;;;;21.28;45.83;100112.72;5037662;28;46446;-73
2021/07/07 02:49:12;;;;;;;;;3.75;2.75;;;;;21.27;45.84;100115.50;5036614;28;59807;-74
2021/07/07 02:51:38;;;;;;;;;4.50;3.25;;;;;21.26;45.81;100117.31;5037063;28;61475;-77
2021/07/07 02:54:03;;;;;;;;;3.50;3.00;;;;;21.25;45.91;100117.38;5037755;28;56345;-74
2021/07/07 02:56:29;;;;;;;;;5.00;4.25;;;;;21.25;45.88;100120.03;5037645;28;46422;-74
2021/07/07 02:58:54;;;;;;;;;3.50;2.00;;;;;21.23;45.88;100119.28;5038353;28;55999;-76
2021/07/07 03:01:21;;;;;;;;;4.00;4.00;;;;;21.22;46.00;100125.56;5036961;28;58951;-74
2021/07/07 03:03:46;;;;;;;;;5.00;3.50;;;;;21.21;46.48;100123.88;5037293;28;45584;-74
2021/07/07 03:06:12;;;;;;;;;2.25;2.25;;;;;21.20;46.16;100124.84;5034634;28;46867;-74
2021/07/07 03:08:42;;;;;;;;;2.25;2.25;;;;;21.18;45.85;100126.75;5052742;28;45446;-72
2021/07/07 03:11:08;;;;;;;;;2.00;2.00;;;;;21.16;45.97;100128.69;5037556;28;45582;-73
2021/07/07 03:13:33;;;;;;;;;3.75;3.50;;;;;21.15;46.01;100116.38;5036357;28;45669;-72
2021/07/07 03:15:59;;;;;;;;;3.25;2.00;;;;;21.13;46.27;100123.63;5036226;28;46491;-73
2021/07/07 03:18:24;;;;;;;;;4.25;4.25;;;;;21.12;46.25;100121.94;5034983;28;45560;-73
2021/07/07 03:20:50;;;;;;;;;4.00;3.75;;;;;21.11;46.00;100136.16;5035572;28;65025;-75
2021/07/07 03:23:18;;;;;;;;;5.00;5.00;;;;;21.08;46.34;100137.25;5036316;28;45491;-76
2021/07/07 03:25:43;;;;;;;;;3.00;3.00;;;;;21.06;46.30;100133.88;5035481;28;47653;-74
2021/07/07 03:28:09;;;;;;;;;5.00;3.00;;;;;21.03;46.50;100134.91;5023723;28;45711;-77
2021/07/07 03:30:34;;;;;;;;;2.00;2.00;;;;;21.03;46.47;100140.22;5017745;28;46174;-76
2021/07/07 03:33:00;;;;;;;;;4.00;4.00;;;;;21.02;46.55;100143.00;5035862;28;54914;-77
2021/07/07 03:35:25;;;;;;;;;3.75;3.00;;;;;21.01;46.47;100146.63;5037959;28;45678;-78
2021/07/07 03:37:51;;;;;;;;;5.75;2.75;;;;;20.97;46.48;100138.03;5040471;28;45489;-78
2021/07/07 03:40:17;;;;;;;;;2.25;2.25;;;;;20.97;46.65;100142.50;5041116;28;45327;-78
2021/07/07 03:42:42;;;;;;;;;3.00;3.00;;;;;20.95;46.82;100139.97;5042946;28;45591;-76
2021/07/07 03:45:09;;;;;;;;;5.50;3.00;;;;;20.93;46.80;100141.03;5037164;28;46274;-78
2021/07/07 03:47:34;;;;;;;;;3.00;3.00;;;;;20.91;47.00;100141.16;5037560;28;45586;-80
2021/07/07 03:50:00;;;;;;;;;5.50;3.75;;;;;20.91;46.78;100146.47;5037070;28;46003;-79
2021/07/07 03:52:25;;;;;;;;;3.25;3.00;;;;;20.90;46.75;100154.56;5051505;28;45526;-78
2021/07/07 03:54:51;;;;;;;;;4.50;3.25;;;;;20.87;46.72;100152.13;5035498;28;47077;-77
2021/07/07 03:57:16;;;;;;;;;6.00;3.50;;;;;20.86;46.96;100150.44;5035235;28;45815;-76
2021/07/07 03:59:43;;;;;;;;;2.50;2.00;;;;;20.85;47.08;100159.38;5019233;28;45968;-75
2021/07/07 04:02:08;;;;;;;;;6.00;4.00;;;;;20.82;47.22;100155.13;5035278;28;45329;-74
2021/07/07 04:04:36;;;;;;;;;5.00;3.25;;;;;20.83;47.02;100153.31;5037229;28;45254;-74
2021/07/07 04:07:02;;;;;;;;;3.00;3.00;;;;;20.80;47.06;100151.72;5019204;28;45415;-77
2021/07/07 04:09:30;;;;;;;;;3.25;3.25;;;;;20.79;47.30;100155.34;5015608;28;45365;-74
2021/07/07 04:11:56;;;;;;;;;2.00;2.00;;;;;20.79;47.21;100168.59;5014765;28;45547;-76
2021/07/07 04:14:23;;;;;;;;;4.00;2.25;;;;;20.79;47.23;100162.44;5039329;28;46313;-75
2021/07/07 04:16:52;;;;;;;;;3.25;3.25;;;;;20.75;47.39;100162.69;5041198;28;45510;-75
2021/07/07 04:19:18;;;;;;;;;5.00;4.75;;;;;20.74;47.27;100166.28;5036202;28;45361;-74
2021/07/07 04:21:44;;;;;;;;;3.75;3.00;;;;;20.74;47.46;100168.09;5034495;28;45560;-75
2021/07/07 04:24:10;;;;;;;;;3.25;3.25;;;;;20.73;47.59;100175.22;5018848;28;47776;-75
2021/07/07 04:26:35;;;;;;;;;3.00;3.00;;;;;20.73;47.51;100174.38;5035254;28;45441;-74
2021/07/07 04:29:01;;;;;;;;;3.25;3.00;;;;;20.73;47.70;100169.06;5035896;28;45606;-74
2021/07/07 04:31:26;;;;;;;;;3.50;3.00;;;;;20.72;47.88;100176.19;5035043;28;45257;-73
2021/07/07 04:33:51;;;;;;;;;2.00;2.00;;;;;20.72;47.78;100178.00;5033673;28;58034;-75
2021/07/07 04:36:17;;;;;;;;;3.00;3.00;;;;;20.72;47.54;100184.16;5016725;28;65002;-73
2021/07/07 04:38:42;;;;;;;;;3.75;3.00;;;;;20.73;47.64;100190.28;5035211;28;45710;-73
2021/07/07 04:41:07;;;;;;;;;3.00;3.00;;;;;20.72;47.86;100196.56;5051166;28;45429;-76
2021/07/07 04:43:33;;;;;;;;;5.75;5.00;;;;;20.72;47.64;100193.91;5016093;28;47265;-77
2021/07/07 04:45:58;;;;;;;;;5.00;3.50;;;;;20.72;47.75;100189.44;5033325;28;68353;-74
2021/07/07 04:48:24;;;;;;;;;3.00;3.00;;;;;20.73;47.54;100193.78;5034311;28;62859;-76
2021/07/07 04:50:49;;;;;;;;;3.75;3.75;;;;;20.74;47.87;100192.00;5034835;28;45567;-74
2021/07/07 04:53:18;;;;;;;;;5.00;3.00;;;;;20.76;48.01;100200.69;5035993;28;45658;-76
2021/07/07 04:55:43;;;;;;;;;5.00;4.50;;;;;20.77;48.08;100199.72;5034403;28;45647;-75
2021/07/07 04:58:09;;;;;;;;;7.75;7.75;;;;;20.78;48.35;100201.41;5036617;28;45675;-75
2021/07/07 05:00:34;;;;;;;;;6.00;6.00;;;;;20.80;48.08;100207.47;5020094;28;45324;-75
2021/07/07 05:03:00;;;;;;;;;4.75;3.75;;;;;20.80;47.88;100204.81;5033931;28;47102;-74
2021/07/07 05:05:25;;;;;;;;;6.00;4.00;;;;;20.81;48.33;100211.81;5033961;28;45480;-73
2021/07/07 05:07:51;;;;;;;;;6.75;6.00;;;;;20.83;48.36;100214.38;5020461;28;45562;-74
2021/07/07 05:10:16;;;;;;;;;4.00;3.00;;;;;20.83;48.31;100223.19;5019933;28;45550;-74
2021/07/07 05:12:42;;;;;;;;;4.50;3.00;;;;;20.85;48.07;100215.97;5024858;28;46202;-72
2021/07/07 05:15:09;;;;;;;;;3.00;3.00;;;;;20.87;48.21;100221.16;5016320;28;45497;-74
2021/07/07 05:17:34;;;;;;;;;3.50;3.50;;;;;20.88;48.27;100218.38;5033575;28;46006;-73
2021/07/07 05:20:00;;;;;;;;;4.50;4.50;;;;;20.88;48.34;100220.19;5037311;28;45767;-75
2021/07/07 05:22:27;;;;;;;;;3.25;3.00;;;;;20.82;48.36;100218.84;5035451;28;45579;-77
2021/07/07 05:24:52;;;;;;;;;8.00;6.75;;;;;20.76;48.48;100227.22;5037664;28;45366;-77
2021/07/07 05:27:18;;;;;;;;;5.25;5.25;;;;;20.70;48.40;100222.38;5018646;28;54826;-74
2021/07/07 05:29:43;;;;;;;;;6.00;4.50;;;;;20.65;48.79;100227.16;5037607;28;51099;-76
2021/07/07 05:32:09;;;;;;;;;5.00;5.00;;;;;20.61;48.60;100225.69;5021362;28;45633;-76
2021/07/07 05:34:36;;;;;;;;;5.50;4.25;;;;;20.56;48.82;100235.78;5032951;28;45860;-79
2021/07/07 05:37:01;;;;;;;;;6.00;4.00;;;;;20.49;48.92;100235.38;5033506;28;45500;-72
2021/07/07 05:39:27;;;;;;;;;5.00;5.00;;;;;20.42;49.04;100227.00;5036120;28;45615;-76
2021/07/07 05:41:53;;;;;;;;;7.00;5.75;;;;;20.37;49.11;100237.03;5018228;28;48116;-74
2021/07/07 05:44:18;;;;;;;;;6.50;5.00;;;;;20.32;49.09;100233.03;5018392;28;45508;-76
2021/07/07 05:46:43;;;;;;;;;7.25;5.00;;;;;20.27;49.18;100232.53;5018297;28;45447;-77
2021/07/07 05:49:09;;;;;;;;;6.00;5.00;;;;;20.22;49.53;100235.50;5033983;28;45241;-79
2021/07/07 05:51:34;;;;;;;;;6.00;5.25;;;;;20.21;49.48;100241.75;5023145;28;45904;-77
2021/07/07 05:54:00;;;;;;;;;5.00;4.00;;;;;20.16;49.80;100241.22;5014335;28;46005;-75
2021/07/07 05:56:25;;;;;;;;;11.75;10.75;;;;;20.13;49.73;100244.09;5020908;28;45628;-77
2021/07/07 05:58:51;;;;;;;;;5.25;5.25;;;;;20.13;49.62;100238.78;5034091;28;45461;-76
2021/07/07 06:01:16;;;;;;;;;6.00;6.00;;;;;20.09;49.99;100243.44;5033354;28;47251;-77
2021/07/07 06:03:42;;;;;;;;;7.50;5.25;;;;;20.08;49.92;100238.25;5033518;28;49377;-71
2021/07/07 06:06:08;;;;;;;;;7.75;7.75;;;;;20.07;49.83;100245.38;5035417;28;45479;-78
2021/07/07 06:08:33;;;;;;;;;10.50;6.00;;;;;20.07;49.63;100244.50;5034980;28;45476;-76
2021/07/07 06:10:58;;;;;;;;;9.00;7.25;;;;;20.09;50.15;100245.25;5034341;28;45544;-69
2021/07/07 06:13:24;;;;;;;;;6.75;6.00;;;;;20.09;50.27;100254.06;5049162;28;45584;-69
2021/07/07 06:15:50;;;;;;;;;5.75;5.25;;;;;20.11;49.91;100253.94;5015910;28;45656;-69
2021/07/07 06:18:15;;;;;;;;;6.75;6.00;;;;;20.14;50.10;100259.88;5015486;28;45629;-72
2021/07/07 06:20:42;;;;;;;;;6.50;6.00;;;;;20.19;50.33;100259.59;5014870;28;45643;-76
2021/07/07 06:23:08;;;;;;;;;5.00;5.00;;;;;20.21;49.92;100260.31;5030122;28;45444;-70
2021/07/07 06:25:33;;;;;;;;;5.00;5.00;;;;;20.23;50.46;100261.06;5012954;28;45476;-77
2021/07/07 06:28:00;;;;;;;;;9.00;7.25;;;;;20.25;50.60;100253.00;5031271;28;45262;-75
2021/07/07 06:30:26;;;;;;;;;5.50;5.50;;;;;20.29;50.86;100260.63;5031118;28;45601;-76
2021/07/07 06:32:52;;;;;;;;;5.00;4.75;;;;;20.34;50.59;100258.50;5031926;28;45867;-70
2021/07/07 06:35:18;;;;;;;;;5.25;5.00;;;;;20.38;52.24;100262.63;5005224;28;45597;-69
2021/07/07 06:37:45;;;;;;;;;7.25;5.75;;;;;20.38;52.39;100265.25;5028738;28;45529;-70
